createdAt,value
2022-12-23T00:01:50.076Z,78.15
2022-12-23T00:04:18.698Z,78.29
2022-12-23T00:06:47.188Z,78.52
2022-12-23T00:09:15.939Z,78.56
2022-12-23T00:12:13.971Z,78.78
2022-12-23T00:15:00.216Z,79.17
2022-12-23T00:17:29.244Z,79.27
2022-12-23T00:19:57.605Z,79.90
2022-12-23T00:22:46.123Z,79.66
2022-12-23T00:25:15.212Z,79.98
2022-12-23T00:28:01.233Z,80.21
2022-12-23T00:30:29.764Z,80.44
2022-12-23T00:32:59.047Z,80.97
2022-12-23T00:35:30.180Z,80.80
2022-12-23T00:37:59.437Z,81.12
2022-12-23T00:40:45.470Z,81.32
2022-12-23T00:43:15.221Z,81.40
2022-12-23T00:45:44.517Z,81.66
2022-12-23T00:48:30.630Z,81.69
2022-12-23T00:51:00.010Z,81.89
2022-12-23T00:53:28.481Z,82.00
2022-12-23T00:55:56.859Z,81.82
2022-12-23T00:58:26.900Z,82.11
2022-12-23T01:01:13.729Z,82.10
2022-12-23T01:04:14.458Z,82.28
2022-12-23T01:06:42.836Z,82.29
2022-12-23T01:09:11.649Z,82.52
2022-12-23T01:11:40.411Z,82.40
2022-12-23T01:14:10.354Z,82.55
2022-12-23T01:16:39.530Z,82.53
2022-12-23T01:19:08.373Z,82.93
2022-12-23T01:21:37.881Z,82.65
2022-12-23T01:24:06.736Z,82.92
2022-12-23T01:26:35.159Z,83.20
2022-12-23T01:29:04.888Z,83.19
2022-12-23T01:31:36.459Z,83.09
2022-12-23T01:34:04.853Z,83.05
2022-12-23T01:36:33.563Z,83.15
2022-12-23T01:39:07.971Z,83.46
2022-12-23T01:42:14.311Z,83.64
2022-12-23T01:44:56.034Z,83.78
2022-12-23T01:47:31.877Z,84.03
2022-12-23T01:50:07.745Z,84.11
2022-12-23T01:52:43.089Z,84.22
2022-12-23T01:55:13.632Z,84.41
2022-12-23T01:57:44.360Z,84.61
2022-12-23T02:00:33.401Z,85.06
2022-12-23T02:03:20.755Z,85.02
2022-12-23T02:05:50.320Z,85.49
2022-12-23T02:08:38.308Z,85.48
2022-12-23T02:11:33.783Z,85.75
2022-12-23T02:14:34.467Z,85.90
2022-12-23T02:17:16.184Z,86.13
2022-12-23T02:20:19.997Z,85.97
2022-12-23T02:23:15.395Z,86.24
2022-12-23T02:26:06.218Z,86.61
2022-12-23T02:29:00.755Z,86.76
2022-12-23T02:31:38.435Z,86.60
2022-12-23T02:34:16.216Z,86.90
2022-12-23T02:36:49.516Z,86.72
2022-12-23T02:39:25.668Z,86.95
2022-12-23T02:41:58.510Z,86.98
2022-12-23T02:44:33.733Z,86.96
2022-12-23T02:47:09.445Z,87.25
2022-12-23T02:49:42.243Z,87.34
2022-12-23T02:52:20.505Z,87.03
2022-12-23T02:54:53.628Z,87.31
2022-12-23T02:57:27.065Z,87.61
2022-12-23T03:00:00.702Z,87.42
2022-12-23T03:02:32.162Z,87.40
2022-12-23T03:05:01.513Z,87.65
2022-12-23T03:07:35.036Z,87.53
2022-12-23T03:10:14.785Z,87.40
2022-12-23T03:12:50.198Z,87.43
2022-12-23T03:15:31.032Z,87.56
2022-12-23T03:18:07.776Z,87.65
2022-12-23T03:20:43.648Z,87.76
2022-12-23T03:23:24.455Z,87.82
2022-12-23T03:26:01.233Z,87.69
2022-12-23T03:28:36.768Z,87.63
2022-12-23T03:31:08.348Z,87.74
2022-12-23T03:33:42.591Z,87.71
2022-12-23T03:36:14.652Z,87.75
2022-12-23T03:38:46.317Z,87.56
2022-12-23T03:41:20.644Z,87.48
2022-12-23T03:43:54.127Z,87.53
2022-12-23T03:46:28.821Z,87.63
2022-12-23T03:49:01.467Z,87.59
2022-12-23T03:51:36.179Z,87.50
2022-12-23T03:54:09.217Z,87.56
2022-12-23T03:56:42.923Z,87.61
2022-12-23T03:59:19.123Z,87.74
2022-12-23T04:01:55.366Z,87.79
2022-12-23T04:04:33.898Z,87.65
2022-12-23T04:07:08.851Z,87.78
2022-12-23T04:09:38.111Z,87.51
2022-12-23T04:12:08.118Z,87.52
2022-12-23T04:14:37.675Z,87.47
2022-12-23T04:17:06.029Z,87.47
2022-12-23T04:19:36.551Z,87.58
2022-12-23T04:22:05.473Z,87.55
2022-12-23T04:24:34.131Z,87.46
2022-12-23T04:27:02.536Z,87.22
2022-12-23T04:29:31.696Z,87.44
2022-12-23T04:32:00.480Z,87.33
2022-12-23T04:34:28.819Z,87.26
2022-12-23T04:36:59.535Z,87.59
2022-12-23T04:39:28.064Z,87.26
2022-12-23T04:41:57.502Z,87.36
2022-12-23T04:44:25.858Z,87.40
2022-12-23T04:46:54.518Z,87.64
2022-12-23T04:49:23.056Z,87.49
2022-12-23T04:51:52.272Z,87.82
2022-12-23T04:54:22.012Z,87.53
2022-12-23T04:56:51.211Z,87.57
2022-12-23T04:59:19.848Z,87.73
2022-12-23T05:01:48.357Z,87.89
2022-12-23T05:04:17.745Z,87.84
2022-12-23T05:06:46.593Z,88.23
2022-12-23T05:09:14.936Z,88.12
2022-12-23T05:11:45.483Z,88.29
2022-12-23T05:14:13.979Z,88.27
2022-12-23T05:16:43.212Z,88.47
2022-12-23T05:19:12.192Z,88.62
2022-12-23T05:21:40.607Z,88.37
2022-12-23T05:24:09.185Z,88.70
2022-12-23T05:26:38.306Z,88.50
2022-12-23T05:29:08.077Z,88.65
2022-12-23T05:31:36.699Z,88.73
2022-12-23T05:34:06.867Z,89.17
2022-12-23T05:36:35.384Z,88.96
2022-12-23T05:39:04.744Z,88.85
2022-12-23T05:41:33.435Z,89.05
2022-12-23T05:44:03.387Z,89.12
2022-12-23T05:46:33.704Z,89.06
2022-12-23T05:49:02.087Z,88.96
2022-12-23T05:51:30.981Z,89.15
2022-12-23T05:53:59.499Z,89.11
2022-12-23T05:56:28.345Z,89.07
2022-12-23T05:58:56.753Z,88.82
2022-12-23T06:01:25.081Z,88.95
2022-12-23T06:03:55.078Z,88.96
2022-12-23T06:06:23.604Z,89.04
2022-12-23T06:08:59.130Z,89.27
2022-12-23T06:11:28.674Z,89.21
2022-12-23T06:13:57.357Z,89.03
2022-12-23T06:16:25.809Z,89.27
2022-12-23T06:18:57.519Z,89.25
2022-12-23T06:21:26.653Z,89.24
2022-12-23T06:23:55.816Z,89.39
2022-12-23T06:26:24.204Z,89.25
2022-12-23T06:28:53.626Z,89.24
2022-12-23T06:31:22.135Z,89.07
2022-12-23T06:33:51.026Z,89.41
2022-12-23T06:36:21.198Z,89.16
2022-12-23T06:38:49.517Z,89.30
2022-12-23T06:41:18.323Z,89.27
2022-12-23T06:43:49.941Z,89.36
2022-12-23T06:46:22.532Z,89.32
2022-12-23T06:48:51.015Z,89.39
2022-12-23T06:51:21.563Z,89.56
2022-12-23T06:53:50.345Z,89.68
2022-12-23T06:56:19.774Z,89.78
2022-12-23T06:58:48.984Z,89.55
2022-12-23T07:01:17.448Z,89.46
2022-12-23T07:03:46.222Z,89.71
2022-12-23T07:06:15.033Z,89.50
2022-12-23T07:08:45.174Z,89.86
2022-12-23T07:11:14.043Z,89.73
2022-12-23T07:13:42.365Z,89.38
2022-12-23T07:16:11.267Z,89.57
2022-12-23T07:18:40.113Z,89.26
2022-12-23T07:21:16.309Z,89.40
2022-12-23T07:23:52.105Z,89.34
2022-12-23T07:26:20.421Z,89.52
2022-12-23T07:28:49.196Z,89.17
2022-12-23T07:31:18.281Z,88.98
2022-12-23T07:33:47.174Z,89.20
2022-12-23T07:36:15.943Z,88.86
2022-12-23T07:38:44.610Z,88.65
2022-12-23T07:41:14.412Z,88.84
2022-12-23T07:43:42.793Z,88.65
2022-12-23T07:46:11.319Z,88.72
2022-12-23T07:48:41.009Z,88.86
2022-12-23T07:51:10.434Z,89.05
2022-12-23T07:53:39.195Z,88.59
2022-12-23T07:56:08.107Z,88.55
2022-12-23T07:58:37.831Z,88.51
2022-12-23T08:01:09.095Z,88.75
2022-12-23T08:03:38.186Z,88.53
2022-12-23T08:06:10.217Z,88.20
2022-12-23T08:08:38.769Z,88.42
2022-12-23T08:11:10.032Z,88.15
2022-12-23T08:13:41.321Z,88.15
2022-12-23T08:16:11.330Z,88.48
2022-12-23T08:18:41.222Z,88.38
2022-12-23T08:21:13.490Z,88.06
2022-12-23T08:23:43.763Z,88.21
2022-12-23T08:26:13.999Z,88.37
2022-12-23T08:28:44.695Z,88.67
2022-12-23T08:31:16.737Z,88.00
2022-12-23T08:33:47.573Z,87.62
2022-12-23T08:36:23.162Z,87.19
2022-12-23T08:38:54.298Z,86.94
2022-12-23T08:41:26.126Z,86.82
2022-12-23T08:43:56.944Z,86.68
2022-12-23T08:46:26.318Z,86.49
2022-12-23T08:48:55.504Z,86.59
2022-12-23T08:51:25.131Z,86.47
2022-12-23T08:54:00.567Z,86.39
2022-12-23T08:56:34.085Z,86.23
2022-12-23T08:59:05.066Z,86.34
2022-12-23T09:01:35.502Z,86.39
2022-12-23T09:04:04.762Z,85.98
2022-12-23T09:06:37.063Z,85.93
2022-12-23T09:09:06.389Z,86.18
2022-12-23T09:11:35.481Z,86.09
2022-12-23T09:14:06.020Z,86.34
2022-12-23T09:16:34.548Z,85.81
2022-12-23T09:19:03.660Z,86.13
2022-12-23T09:21:32.158Z,85.97
2022-12-23T09:24:01.352Z,85.86
2022-12-23T09:26:32.445Z,85.63
2022-12-23T09:29:01.047Z,85.45
2022-12-23T09:31:36.876Z,85.79
2022-12-23T09:34:06.913Z,85.53
2022-12-23T09:36:35.688Z,85.49
2022-12-23T09:39:04.869Z,85.42
2022-12-23T09:41:51.175Z,85.59
2022-12-23T09:44:38.497Z,85.86
2022-12-23T09:47:14.039Z,85.92
2022-12-23T09:49:52.544Z,85.38
2022-12-23T09:52:26.303Z,85.79
2022-12-23T09:54:56.046Z,85.43
2022-12-23T09:57:35.302Z,85.46
2022-12-23T10:00:14.061Z,85.80
2022-12-23T10:03:05.075Z,85.58
2022-12-23T10:05:42.729Z,85.52
2022-12-23T10:08:16.986Z,85.66
2022-12-23T10:10:49.489Z,85.53
2022-12-23T10:13:26.544Z,85.54
2022-12-23T10:15:57.908Z,85.45
2022-12-23T10:18:39.351Z,85.65
2022-12-23T10:21:15.553Z,85.25
2022-12-23T10:23:50.861Z,85.42
2022-12-23T10:26:25.904Z,84.92
2022-12-23T10:29:01.834Z,84.80
2022-12-23T10:31:50.169Z,85.00
2022-12-23T10:34:31.135Z,84.80
2022-12-23T10:37:10.227Z,84.88
2022-12-23T10:39:46.391Z,84.50
2022-12-23T10:42:25.918Z,84.63
2022-12-23T10:45:10.416Z,84.40
2022-12-23T10:47:49.981Z,84.50
2022-12-23T10:50:56.752Z,84.22
2022-12-23T10:53:35.761Z,84.34
2022-12-23T10:56:08.329Z,84.50
2022-12-23T10:58:41.559Z,84.26
2022-12-23T11:01:21.873Z,84.31
2022-12-23T11:04:00.485Z,84.00
2022-12-23T11:06:36.820Z,84.18
2022-12-23T11:09:07.136Z,83.98
2022-12-23T11:11:55.468Z,84.28
2022-12-23T11:14:37.861Z,84.43
2022-12-23T11:17:18.436Z,84.35
2022-12-23T11:19:46.876Z,84.54
2022-12-23T11:22:25.937Z,84.17
2022-12-23T11:24:55.156Z,84.31
2022-12-23T11:27:23.588Z,84.48
2022-12-23T11:29:56.052Z,84.24
2022-12-23T11:32:27.370Z,84.67
2022-12-23T11:34:57.757Z,84.36
2022-12-23T11:37:35.838Z,84.53
2022-12-23T11:40:07.484Z,84.36
2022-12-23T11:42:36.043Z,84.56
2022-12-23T11:45:09.017Z,84.25
2022-12-23T11:47:41.208Z,84.32
2022-12-23T11:50:28.840Z,84.41
2022-12-23T11:53:11.101Z,84.47
2022-12-23T11:55:46.830Z,84.29
2022-12-23T11:58:21.427Z,84.23
2022-12-23T12:00:57.116Z,84.32
2022-12-23T12:03:29.190Z,84.46
2022-12-23T12:06:02.084Z,84.39
2022-12-23T12:08:34.686Z,84.63
2022-12-23T12:11:07.437Z,84.42
2022-12-23T12:13:40.555Z,84.81
2022-12-23T12:16:24.001Z,84.65
2022-12-23T12:18:56.241Z,84.90
2022-12-23T12:21:29.620Z,85.17
2022-12-23T12:24:18.396Z,85.38
2022-12-23T12:26:52.617Z,85.37
2022-12-23T12:29:27.567Z,85.31
2022-12-23T12:31:58.853Z,85.45
2022-12-23T12:34:37.365Z,85.34
2022-12-23T12:37:19.701Z,85.70
2022-12-23T12:39:54.045Z,85.55
2022-12-23T12:42:29.102Z,85.83
2022-12-23T12:45:11.094Z,85.96
2022-12-23T12:47:53.934Z,86.03
2022-12-23T12:50:28.556Z,86.38
2022-12-23T12:53:03.546Z,86.21
2022-12-23T12:55:38.388Z,86.51
2022-12-23T12:58:19.474Z,86.69
2022-12-23T13:00:58.141Z,86.76
2022-12-23T13:03:46.895Z,86.96
2022-12-23T13:06:26.348Z,87.15
2022-12-23T13:09:03.835Z,86.78
2022-12-23T13:11:45.511Z,86.98
2022-12-23T13:14:25.832Z,87.04
2022-12-23T13:17:03.766Z,86.93
2022-12-23T13:19:37.801Z,86.79
2022-12-23T13:22:10.047Z,86.82
2022-12-23T13:24:53.570Z,86.98
2022-12-23T13:27:33.064Z,86.88
2022-12-23T13:30:12.529Z,86.97
2022-12-23T13:32:57.081Z,87.09
2022-12-23T13:35:37.031Z,86.98
2022-12-23T13:38:19.105Z,86.89
2022-12-23T13:40:59.736Z,86.97
2022-12-23T13:43:40.022Z,87.17
2022-12-23T13:46:19.443Z,86.68
2022-12-23T13:48:56.441Z,86.93
2022-12-23T13:51:33.742Z,86.93
2022-12-23T13:54:13.377Z,86.71
2022-12-23T13:56:46.242Z,86.72
2022-12-23T13:59:18.124Z,86.99
2022-12-23T14:01:49.411Z,86.99
2022-12-23T14:04:33.722Z,86.86
2022-12-23T14:07:05.038Z,87.00
2022-12-23T14:09:37.152Z,87.37
2022-12-23T14:12:19.587Z,87.43
2022-12-23T14:15:05.713Z,87.38
2022-12-23T14:17:45.688Z,87.17
2022-12-23T14:20:27.582Z,87.22
2022-12-23T14:23:07.091Z,87.72
2022-12-23T14:25:59.820Z,87.66
2022-12-23T14:28:47.825Z,87.92
2022-12-23T14:31:33.027Z,87.78
2022-12-23T14:34:23.906Z,88.16
2022-12-23T14:37:17.463Z,88.12
2022-12-23T14:39:46.493Z,88.52
2022-12-23T14:42:33.760Z,88.42
2022-12-23T14:45:29.631Z,88.46
2022-12-23T14:48:01.532Z,88.72
2022-12-23T14:50:39.784Z,88.59
2022-12-23T14:53:24.629Z,88.95
2022-12-23T14:56:12.699Z,89.34
2022-12-23T14:59:12.336Z,88.95
2022-12-23T15:01:43.152Z,88.83
2022-12-23T15:04:22.282Z,89.10
2022-12-23T15:06:54.647Z,88.71
2022-12-23T15:09:27.600Z,88.71
2022-12-23T15:11:58.625Z,88.81
2022-12-23T15:14:34.931Z,88.89
2022-12-23T15:17:16.605Z,88.49
2022-12-23T15:19:50.664Z,88.75
2022-12-23T15:22:25.187Z,88.74
2022-12-23T15:24:59.106Z,88.62
2022-12-23T15:27:30.407Z,88.67
2022-12-23T15:29:59.234Z,88.53
2022-12-23T15:32:30.207Z,88.82
2022-12-23T15:35:03.968Z,89.10
2022-12-23T15:37:33.568Z,89.09
2022-12-23T15:40:12.240Z,89.43
2022-12-23T15:42:49.071Z,89.58
2022-12-23T15:45:32.279Z,89.80
2022-12-23T15:48:00.967Z,90.00
2022-12-23T15:50:32.235Z,89.91
2022-12-23T15:53:06.539Z,90.10
2022-12-23T15:55:37.806Z,90.11
2022-12-23T15:58:06.478Z,90.38
2022-12-23T16:00:39.808Z,90.18
2022-12-23T16:03:21.806Z,90.57
2022-12-23T16:05:51.732Z,90.71
2022-12-23T16:08:29.134Z,90.92
2022-12-23T16:11:13.237Z,90.74
2022-12-23T16:13:47.326Z,91.03
2022-12-23T16:16:32.671Z,91.35
2022-12-23T16:19:01.163Z,91.16
2022-12-23T16:21:35.071Z,91.26
2022-12-23T16:24:08.536Z,91.50
2022-12-23T16:26:41.914Z,91.54
2022-12-23T16:29:12.230Z,91.99
2022-12-23T16:31:45.712Z,91.82
2022-12-23T16:34:19.208Z,91.89
2022-12-23T16:36:49.314Z,92.18
2022-12-23T16:39:23.131Z,91.77
2022-12-23T16:41:52.500Z,91.94
2022-12-23T16:44:21.525Z,92.33
2022-12-23T16:46:51.865Z,92.06
2022-12-23T16:49:25.517Z,91.88
2022-12-23T16:51:59.608Z,92.13
2022-12-23T16:54:28.057Z,91.98
2022-12-23T16:56:56.418Z,92.01
2022-12-23T16:59:26.294Z,92.02
2022-12-23T17:02:01.229Z,92.18
2022-12-23T17:04:31.921Z,92.13
2022-12-23T17:07:02.219Z,91.84
2022-12-23T17:09:31.133Z,92.05
2022-12-23T17:11:59.525Z,91.88
2022-12-23T17:14:27.916Z,91.86
2022-12-23T17:16:56.365Z,92.40
2022-12-23T17:19:28.780Z,92.26
2022-12-23T17:22:04.954Z,92.31
2022-12-23T17:24:33.835Z,92.32
2022-12-23T17:27:02.239Z,92.62
2022-12-23T17:29:31.247Z,92.26
2022-12-23T17:32:00.299Z,92.44
2022-12-23T17:34:31.943Z,92.40
2022-12-23T17:37:19.927Z,92.47
2022-12-23T17:40:22.708Z,92.24
2022-12-23T17:42:58.639Z,92.42
2022-12-23T17:46:00.514Z,92.29
2022-12-23T17:48:41.975Z,92.12
2022-12-23T17:51:28.406Z,92.54
2022-12-23T17:54:11.946Z,92.70
2022-12-23T17:56:53.122Z,92.29
2022-12-23T17:59:28.791Z,92.63
2022-12-23T18:02:17.940Z,92.44
2022-12-23T18:05:17.055Z,92.00
2022-12-23T18:08:18.556Z,92.19
2022-12-23T18:11:13.261Z,92.14
2022-12-23T18:13:50.157Z,91.96
2022-12-23T18:16:25.977Z,91.67
2022-12-23T18:19:16.337Z,91.48
2022-12-23T18:22:03.124Z,91.37
2022-12-23T18:24:58.657Z,91.01
2022-12-23T18:28:08.106Z,90.81
2022-12-23T18:30:45.154Z,91.03
2022-12-23T18:36:30.855Z,90.81
2022-12-23T18:39:09.279Z,90.73
2022-12-23T18:41:49.767Z,90.31
2022-12-23T18:44:35.360Z,90.32
2022-12-23T18:47:13.256Z,90.17
2022-12-23T18:50:20.995Z,90.07
2022-12-23T18:53:07.205Z,89.99
2022-12-23T18:55:39.901Z,90.16
2022-12-23T18:58:35.294Z,90.12
2022-12-23T19:04:11.723Z,90.12
2022-12-23T19:06:46.377Z,89.94
2022-12-23T19:09:19.629Z,89.80
2022-12-23T19:11:49.626Z,89.94
2022-12-23T19:14:18.169Z,89.66
2022-12-23T19:16:52.062Z,89.38
2022-12-23T19:19:21.319Z,89.47
2022-12-23T19:21:50.733Z,89.33
2022-12-23T19:24:19.160Z,89.28
2022-12-23T19:26:48.666Z,88.97
2022-12-23T19:29:17.488Z,88.90
2022-12-23T19:31:47.156Z,88.69
2022-12-23T19:34:16.211Z,88.49
2022-12-23T19:36:45.046Z,88.40
2022-12-23T19:39:17.055Z,88.36
2022-12-23T19:41:46.186Z,87.94
2022-12-23T19:44:15.485Z,87.88
2022-12-23T19:46:44.726Z,87.76
2022-12-23T19:49:19.755Z,87.87
2022-12-23T19:51:49.817Z,87.76
2022-12-23T19:54:19.587Z,87.63
2022-12-23T19:56:51.193Z,87.70
2022-12-23T19:59:19.825Z,87.41
2022-12-23T20:01:49.313Z,87.40
2022-12-23T20:04:19.235Z,87.33
2022-12-23T20:06:48.204Z,86.85
2022-12-23T20:09:16.603Z,85.95
2022-12-23T20:11:46.827Z,85.06
2022-12-23T20:14:16.732Z,84.22
2022-12-23T20:16:46.305Z,84.08
2022-12-23T20:19:15.132Z,83.94
2022-12-23T20:21:46.572Z,83.83
2022-12-23T20:24:16.421Z,83.28
2022-12-23T20:26:45.312Z,83.28
2022-12-23T20:29:14.322Z,83.05
2022-12-23T20:31:43.426Z,82.95
2022-12-23T20:34:16.056Z,82.96
2022-12-23T20:36:46.649Z,82.88
2022-12-23T20:39:15.148Z,82.84
2022-12-23T20:41:44.407Z,82.61
2022-12-23T20:47:01.783Z,82.72
2022-12-23T20:49:30.564Z,82.88
2022-12-23T20:52:00.365Z,83.05
2022-12-23T20:54:33.418Z,82.98
2022-12-23T20:57:03.783Z,83.07
2022-12-23T20:59:33.141Z,83.32
2022-12-23T21:02:01.823Z,83.53
2022-12-23T21:04:30.350Z,83.42
2022-12-23T21:07:00.316Z,83.57
2022-12-23T21:09:28.779Z,83.82
2022-12-23T21:11:57.427Z,83.95
2022-12-23T21:14:25.930Z,84.26
2022-12-23T21:16:54.600Z,84.49
2022-12-23T21:19:25.612Z,84.37
2022-12-23T21:21:54.644Z,84.47
2022-12-23T21:24:24.722Z,84.39
2022-12-23T21:26:56.810Z,84.50
2022-12-23T21:29:26.620Z,84.58
2022-12-23T21:31:55.503Z,84.77
2022-12-23T21:34:24.215Z,84.88
2022-12-23T21:36:52.722Z,84.66
2022-12-23T21:39:21.166Z,84.61
2022-12-23T21:41:52.699Z,84.69
2022-12-23T21:44:21.116Z,84.74
2022-12-23T21:46:51.148Z,84.72
2022-12-23T21:49:21.585Z,85.12
2022-12-23T21:51:51.405Z,85.05
2022-12-23T21:54:20.369Z,84.92
2022-12-23T21:56:50.487Z,85.08
2022-12-23T21:59:19.009Z,85.36
2022-12-23T22:01:48.076Z,85.37
2022-12-23T22:04:16.609Z,85.53
2022-12-23T22:06:46.064Z,85.19
2022-12-23T22:09:16.964Z,85.44
2022-12-23T22:11:46.949Z,85.36
2022-12-23T22:14:19.328Z,85.39
2022-12-23T22:16:48.244Z,85.67
2022-12-23T22:19:17.394Z,85.87
2022-12-23T22:21:48.569Z,85.92
2022-12-23T22:24:17.180Z,86.18
2022-12-23T22:26:45.540Z,86.53
2022-12-23T22:29:15.801Z,86.60
2022-12-23T22:31:54.818Z,86.52
2022-12-23T22:34:23.930Z,86.94
2022-12-23T22:36:52.789Z,87.00
2022-12-23T22:39:22.162Z,86.70
2022-12-23T22:41:52.041Z,87.02
2022-12-23T22:44:22.077Z,87.23
2022-12-23T22:46:51.627Z,87.31
2022-12-23T22:49:20.206Z,87.27
2022-12-23T22:51:48.978Z,87.64
2022-12-23T22:54:17.890Z,87.59
2022-12-23T22:56:46.812Z,87.90
2022-12-23T22:59:24.053Z,87.81
2022-12-23T23:01:54.391Z,88.25
2022-12-23T23:04:24.124Z,88.21
2022-12-23T23:06:52.614Z,88.13
2022-12-23T23:09:23.237Z,88.10
2022-12-23T23:11:52.189Z,88.20
2022-12-23T23:14:22.850Z,88.16
2022-12-23T23:16:51.445Z,88.16
2022-12-23T23:19:21.182Z,87.89
2022-12-23T23:21:50.041Z,87.86
2022-12-23T23:24:18.467Z,87.65
2022-12-23T23:26:47.288Z,87.93
2022-12-23T23:29:15.736Z,87.67
2022-12-23T23:31:45.821Z,87.62
2022-12-23T23:34:14.666Z,87.39
2022-12-23T23:36:43.265Z,87.17
2022-12-23T23:39:13.138Z,87.25
2022-12-23T23:41:42.466Z,87.12
2022-12-23T23:44:12.008Z,86.88
2022-12-23T23:46:40.715Z,86.79
2022-12-23T23:49:10.600Z,86.29
2022-12-23T23:51:39.783Z,86.41
2022-12-23T23:54:08.290Z,86.10
2022-12-23T23:56:38.962Z,86.07
2022-12-23T23:59:09.673Z,85.59
